sensor_id;sensor_type;location;lat;lon;timestamp;pressure;altitude;pressure_sealevel;temperature;humidity
70930;BME280;58588;48.102;19.682;2023-02-17T00:02:14;100274.66;;;-0.22;100.00
70930;BME280;58588;48.102;19.682;2023-02-17T00:05:16;100264.84;;;-0.08;100.00
70930;BME280;58588;48.102;19.682;2023-02-17T00:08:19;100271.63;;;-0.31;100.00
70930;BME280;58588;48.102;19.682;2023-02-17T00:11:21;100268.09;;;-0.17;100.00
70930;BME280;58588;48.102;19.682;2023-02-17T00:14:24;100271.25;;;0.03;100.00
70930;BME280;58588;48.102;19.682;2023-02-17T00:17:32;100269.06;;;0.09;100.00
70930;BME280;58588;48.102;19.682;2023-02-17T00:20:34;100260.00;;;-0.28;100.00
70930;BME280;58588;48.102;19.682;2023-02-17T00:23:37;100270.78;;;-0.31;100.00
70930;BME280;58588;48.102;19.682;2023-02-17T00:26:39;100265.22;;;-0.41;100.00
70930;BME280;58588;48.102;19.682;2023-02-17T00:29:41;100265.50;;;-0.45;100.00
70930;BME280;58588;48.102;19.682;2023-02-17T00:32:44;100270.03;;;-0.33;100.00
70930;BME280;58588;48.102;19.682;2023-02-17T00:35:46;100278.53;;;-0.28;100.00
70930;BME280;58588;48.102;19.682;2023-02-17T00:38:49;100282.13;;;-0.29;100.00
70930;BME280;58588;48.102;19.682;2023-02-17T00:41:51;100278.53;;;-0.28;100.00
70930;BME280;58588;48.102;19.682;2023-02-17T00:44:53;100273.13;;;-0.27;100.00
70930;BME280;58588;48.102;19.682;2023-02-17T00:47:55;100275.88;;;-0.42;100.00
70930;BME280;58588;48.102;19.682;2023-02-17T00:50:57;100280.06;;;-0.38;100.00
70930;BME280;58588;48.102;19.682;2023-02-17T00:54:01;100271.03;;;-0.21;100.00
70930;BME280;58588;48.102;19.682;2023-02-17T00:57:03;100277.50;;;-0.40;100.00
70930;BME280;58588;48.102;19.682;2023-02-17T01:00:06;100273.66;;;-0.63;100.00
70930;BME280;58588;48.102;19.682;2023-02-17T01:03:08;100278.00;;;-0.62;100.00
70930;BME280;58588;48.102;19.682;2023-02-17T01:06:16;100276.41;;;-0.64;100.00
70930;BME280;58588;48.102;19.682;2023-02-17T01:09:21;100280.00;;;-0.65;100.00
70930;BME280;58588;48.102;19.682;2023-02-17T01:12:23;100279.88;;;-0.49;100.00
70930;BME280;58588;48.102;19.682;2023-02-17T01:15:25;100279.88;;;-0.49;100.00
70930;BME280;58588;48.102;19.682;2023-02-17T01:18:27;100283.47;;;-0.50;100.00
70930;BME280;58588;48.102;19.682;2023-02-17T01:21:30;100278.78;;;-0.60;100.00
70930;BME280;58588;48.102;19.682;2023-02-17T01:24:33;100271.03;;;-0.77;100.00
70930;BME280;58588;48.102;19.682;2023-02-17T01:27:36;100270.84;;;-0.88;100.00
70930;BME280;58588;48.102;19.682;2023-02-17T01:30:38;100269.69;;;-0.98;100.00
70930;BME280;58588;48.102;19.682;2023-02-17T01:33:40;100273.28;;;-0.99;100.00
70930;BME280;58588;48.102;19.682;2023-02-17T01:36:43;100257.88;;;-1.07;100.00
70930;BME280;58588;48.102;19.682;2023-02-17T01:39:46;100259.84;;;-1.11;100.00
70930;BME280;58588;48.102;19.682;2023-02-17T01:42:48;100257.56;;;-1.02;100.00
70930;BME280;58588;48.102;19.682;2023-02-17T01:45:51;100252.38;;;-1.04;100.00
70930;BME280;58588;48.102;19.682;2023-02-17T01:48:54;100251.34;;;-1.16;100.00
70930;BME280;58588;48.102;19.682;2023-02-17T01:52:01;100247.19;;;-1.20;100.00
70930;BME280;58588;48.102;19.682;2023-02-17T01:55:08;100239.91;;;-1.30;100.00
70930;BME280;58588;48.102;19.682;2023-02-17T01:58:14;100236.13;;;-1.56;100.00
70930;BME280;58588;48.102;19.682;2023-02-17T02:01:16;100235.03;;;-1.52;100.00
70930;BME280;58588;48.102;19.682;2023-02-17T02:04:22;100225.09;;;-1.63;100.00
70930;BME280;58588;48.102;19.682;2023-02-17T02:07:28;100230.00;;;-1.57;100.00
70930;BME280;58588;48.102;19.682;2023-02-17T02:10:32;100222.19;;;-1.44;100.00
70930;BME280;58588;48.102;19.682;2023-02-17T02:13:34;100220.22;;;-1.41;100.00
70930;BME280;58588;48.102;19.682;2023-02-17T02:16:41;100204.50;;;-1.72;100.00
70930;BME280;58588;48.102;19.682;2023-02-17T02:20:08;100204.50;;;-1.72;100.00
70930;BME280;58588;48.102;19.682;2023-02-17T02:23:44;100205.44;;;-1.73;100.00
70930;BME280;58588;48.102;19.682;2023-02-17T02:27:30;100206.66;;;-1.79;100.00
70930;BME280;58588;48.102;19.682;2023-02-17T02:31:05;100210.03;;;-1.77;100.00
70930;BME280;58588;48.102;19.682;2023-02-17T02:34:19;100206.88;;;-1.68;100.00
70930;BME280;58588;48.102;19.682;2023-02-17T02:37:26;100201.78;;;-1.56;100.00
70930;BME280;58588;48.102;19.682;2023-02-17T02:40:34;100217.00;;;-1.46;100.00
70930;BME280;58588;48.102;19.682;2023-02-17T02:43:37;100214.94;;;-1.41;100.00
70930;BME280;58588;48.102;19.682;2023-02-17T02:46:40;100205.41;;;-1.43;100.00
70930;BME280;58588;48.102;19.682;2023-02-17T02:49:43;100209.16;;;-1.62;100.00
70930;BME280;58588;48.102;19.682;2023-02-17T02:52:54;100209.38;;;-1.80;100.00
70930;BME280;58588;48.102;19.682;2023-02-17T02:56:04;100211.28;;;-1.98;100.00
70930;BME280;58588;48.102;19.682;2023-02-17T02:59:22;100208.97;;;-1.89;100.00
70930;BME280;58588;48.102;19.682;2023-02-17T03:02:31;100210.56;;;-1.86;100.00
70930;BME280;58588;48.102;19.682;2023-02-17T03:05:44;100218.66;;;-1.73;100.00
70930;BME280;58588;48.102;19.682;2023-02-17T03:08:52;100214.72;;;-1.66;100.00
70930;BME280;58588;48.102;19.682;2023-02-17T03:11:56;100215.00;;;-1.56;100.00
70930;BME280;58588;48.102;19.682;2023-02-17T03:15:03;100202.78;;;-1.43;100.00
70930;BME280;58588;48.102;19.682;2023-02-17T03:18:05;100219.75;;;-1.47;100.00
70930;BME280;58588;48.102;19.682;2023-02-17T03:21:13;100209.16;;;-1.47;100.00
70930;BME280;58588;48.102;19.682;2023-02-17T03:24:16;100217.47;;;-1.53;100.00
70930;BME280;58588;48.102;19.682;2023-02-17T03:27:18;100219.66;;;-1.76;100.00
70930;BME280;58588;48.102;19.682;2023-02-17T03:30:20;100224.44;;;-1.67;100.00
70930;BME280;58588;48.102;19.682;2023-02-17T03:33:22;100218.28;;;-1.67;100.00
70930;BME280;58588;48.102;19.682;2023-02-17T03:36:25;100213.41;;;-1.59;100.00
70930;BME280;58588;48.102;19.682;2023-02-17T03:39:29;100225.50;;;-1.41;100.00
70930;BME280;58588;48.102;19.682;2023-02-17T03:42:31;100235.13;;;-1.54;100.00
70930;BME280;58588;48.102;19.682;2023-02-17T03:45:35;100239.59;;;-1.40;100.00
70930;BME280;58588;48.102;19.682;2023-02-17T03:48:37;100238.16;;;-1.46;100.00
70930;BME280;58588;48.102;19.682;2023-02-17T03:51:41;100229.16;;;-1.57;100.00
70930;BME280;58588;48.102;19.682;2023-02-17T03:54:43;100244.28;;;-1.45;100.00
70930;BME280;58588;48.102;19.682;2023-02-17T03:57:45;100241.59;;;-1.44;100.00
70930;BME280;58588;48.102;19.682;2023-02-17T04:00:47;100245.25;;;-1.32;100.00
70930;BME280;58588;48.102;19.682;2023-02-17T04:03:49;100248.94;;;-1.35;100.00
70930;BME280;58588;48.102;19.682;2023-02-17T04:06:53;100254.50;;;-1.39;100.00
70930;BME280;58588;48.102;19.682;2023-02-17T04:09:55;100257.94;;;-1.23;100.00
70930;BME280;58588;48.102;19.682;2023-02-17T04:12:57;100255.22;;;-0.93;100.00
70930;BME280;58588;48.102;19.682;2023-02-17T04:15:59;100249.06;;;-0.79;100.00
70930;BME280;58588;48.102;19.682;2023-02-17T04:19:04;100254.28;;;-0.63;100.00
70930;BME280;58588;48.102;19.682;2023-02-17T04:22:07;100245.56;;;-0.51;100.00
70930;BME280;58588;48.102;19.682;2023-02-17T04:25:09;100235.97;;;-0.39;100.00
70930;BME280;58588;48.102;19.682;2023-02-17T04:28:12;100232.09;;;-0.34;100.00
70930;BME280;58588;48.102;19.682;2023-02-17T04:31:14;100228.72;;;-0.36;100.00
70930;BME280;58588;48.102;19.682;2023-02-17T04:34:16;100225.44;;;-0.27;100.00
70930;BME280;58588;48.102;19.682;2023-02-17T04:37:19;100223.09;;;-0.31;100.00
70930;BME280;58588;48.102;19.682;2023-02-17T04:40:22;100213.97;;;-0.54;100.00
70930;BME280;58588;48.102;19.682;2023-02-17T04:43:25;100204.16;;;-0.52;100.00
70930;BME280;58588;48.102;19.682;2023-02-17T04:46:27;100210.22;;;-0.64;100.00
70930;BME280;58588;48.102;19.682;2023-02-17T04:49:29;100217.09;;;-0.47;100.00
70930;BME280;58588;48.102;19.682;2023-02-17T04:52:33;100205.72;;;-0.49;100.00
70930;BME280;58588;48.102;19.682;2023-02-17T04:55:35;100215.31;;;-0.61;100.00
70930;BME280;58588;48.102;19.682;2023-02-17T04:58:37;100201.69;;;-0.55;100.00
70930;BME280;58588;48.102;19.682;2023-02-17T05:01:39;100207.75;;;-0.53;100.00
70930;BME280;58588;48.102;19.682;2023-02-17T05:04:41;100214.34;;;-0.60;100.00
70930;BME280;58588;48.102;19.682;2023-02-17T05:07:45;100226.75;;;-0.61;100.00
70930;BME280;58588;48.102;19.682;2023-02-17T05:10:47;100230.00;;;-0.70;100.00
70930;BME280;58588;48.102;19.682;2023-02-17T05:13:51;100236.97;;;-0.69;100.00
70930;BME280;58588;48.102;19.682;2023-02-17T05:16:53;100227.63;;;-0.74;100.00
70930;BME280;58588;48.102;19.682;2023-02-17T05:19:55;100240.50;;;-0.83;100.00
70930;BME280;58588;48.102;19.682;2023-02-17T05:22:58;100224.22;;;-0.76;100.00
70930;BME280;58588;48.102;19.682;2023-02-17T05:26:00;100225.19;;;-0.77;100.00
70930;BME280;58588;48.102;19.682;2023-02-17T05:29:02;100226.28;;;-0.67;100.00
70930;BME280;58588;48.102;19.682;2023-02-17T05:32:05;100232.16;;;-0.62;100.00
70930;BME280;58588;48.102;19.682;2023-02-17T05:35:07;100249.16;;;-0.52;100.00
70930;BME280;58588;48.102;19.682;2023-02-17T05:38:11;100241.59;;;-0.58;100.00
70930;BME280;58588;48.102;19.682;2023-02-17T05:41:13;100241.00;;;-0.49;100.00
70930;BME280;58588;48.102;19.682;2023-02-17T05:44:15;100231.19;;;-0.47;100.00
70930;BME280;58588;48.102;19.682;2023-02-17T05:47:17;100239.38;;;-0.37;100.00
70930;BME280;58588;48.102;19.682;2023-02-17T05:50:19;100228.78;;;-0.37;100.00
70930;BME280;58588;48.102;19.682;2023-02-17T05:53:22;100240.09;;;-0.21;100.00
70930;BME280;58588;48.102;19.682;2023-02-17T05:56:24;100240.31;;;-0.38;100.00
70930;BME280;58588;48.102;19.682;2023-02-17T05:59:27;100253.78;;;-0.41;100.00
70930;BME280;58588;48.102;19.682;2023-02-17T06:02:29;100244.09;;;-0.42;100.00
70930;BME280;58588;48.102;19.682;2023-02-17T06:05:31;100242.25;;;-0.40;100.00
70930;BME280;58588;48.102;19.682;2023-02-17T06:08:34;100250.53;;;-0.32;100.00
70930;BME280;58588;48.102;19.682;2023-02-17T06:11:36;100239.16;;;-0.20;100.00
70930;BME280;58588;48.102;19.682;2023-02-17T06:14:39;100231.09;;;-0.18;100.00
70930;BME280;58588;48.102;19.682;2023-02-17T06:17:41;100240.53;;;0.00;100.00
70930;BME280;58588;48.102;19.682;2023-02-17T06:20:43;100250.41;;;0.11;100.00
70930;BME280;58588;48.102;19.682;2023-02-17T06:23:47;100234.50;;;0.11;100.00
70930;BME280;58588;48.102;19.682;2023-02-17T06:26:49;100263.88;;;0.08;100.00
70930;BME280;58588;48.102;19.682;2023-02-17T06:29:51;100271.00;;;-0.07;100.00
70930;BME280;58588;48.102;19.682;2023-02-17T06:32:53;100274.81;;;0.16;100.00
70930;BME280;58588;48.102;19.682;2023-02-17T06:35:55;100257.66;;;0.21;100.00
70930;BME280;58588;48.102;19.682;2023-02-17T06:38:59;100253.22;;;0.35;100.00
70930;BME280;58588;48.102;19.682;2023-02-17T06:42:01;100254.25;;;0.19;100.00
70930;BME280;58588;48.102;19.682;2023-02-17T06:45:03;100255.28;;;0.17;100.00
70930;BME280;58588;48.102;19.682;2023-02-17T06:48:06;100248.47;;;0.40;100.00
70930;BME280;58588;48.102;19.682;2023-02-17T06:51:08;100262.31;;;0.58;100.00
70930;BME280;58588;48.102;19.682;2023-02-17T06:54:11;100257.66;;;0.74;100.00
70930;BME280;58588;48.102;19.682;2023-02-17T06:57:13;100256.41;;;0.92;100.00
70930;BME280;58588;48.102;19.682;2023-02-17T07:00:16;100256.50;;;1.03;100.00
70930;BME280;58588;48.102;19.682;2023-02-17T07:03:18;100249.69;;;1.12;100.00
70930;BME280;58588;48.102;19.682;2023-02-17T07:06:20;100248.00;;;1.24;100.00
70930;BME280;58588;48.102;19.682;2023-02-17T07:09:24;100251.06;;;1.30;100.00
70930;BME280;58588;48.102;19.682;2023-02-17T07:12:26;100244.28;;;1.39;100.00
70930;BME280;58588;48.102;19.682;2023-02-17T07:15:28;100252.94;;;1.54;100.00
70930;BME280;58588;48.102;19.682;2023-02-17T07:18:30;100247.94;;;1.62;100.00
70930;BME280;58588;48.102;19.682;2023-02-17T07:21:32;100241.03;;;1.59;100.00
70930;BME280;58588;48.102;19.682;2023-02-17T07:24:36;100252.19;;;1.65;100.00
70930;BME280;58588;48.102;19.682;2023-02-17T07:27:38;100255.50;;;1.92;100.00
70930;BME280;58588;48.102;19.682;2023-02-17T07:30:41;100250.06;;;1.94;100.00
70930;BME280;58588;48.102;19.682;2023-02-17T07:33:44;100240.25;;;1.70;100.00
70930;BME280;58588;48.102;19.682;2023-02-17T07:36:47;100244.28;;;1.76;100.00
70930;BME280;58588;48.102;19.682;2023-02-17T07:39:51;100244.16;;;1.77;100.00
70930;BME280;58588;48.102;19.682;2023-02-17T07:42:53;100243.97;;;1.68;100.00
70930;BME280;58588;48.102;19.682;2023-02-17T07:45:55;100254.50;;;1.69;100.00
70930;BME280;58588;48.102;19.682;2023-02-17T07:48:57;100245.97;;;1.77;100.00
70930;BME280;58588;48.102;19.682;2023-02-17T07:51:59;100247.63;;;1.91;100.00
70930;BME280;58588;48.102;19.682;2023-02-17T07:55:03;100243.72;;;2.07;100.00
70930;BME280;58588;48.102;19.682;2023-02-17T07:58:05;100243.81;;;2.54;100.00
70930;BME280;58588;48.102;19.682;2023-02-17T08:01:09;100244.25;;;2.83;100.00
70930;BME280;58588;48.102;19.682;2023-02-17T08:04:12;100231.81;;;2.94;100.00
70930;BME280;58588;48.102;19.682;2023-02-17T08:07:14;100241.63;;;3.28;100.00
70930;BME280;58588;48.102;19.682;2023-02-17T08:10:18;100246.13;;;3.38;100.00
70930;BME280;58588;48.102;19.682;2023-02-17T08:13:37;100229.00;;;3.63;100.00
70930;BME280;58588;48.102;19.682;2023-02-17T08:16:39;100237.00;;;3.74;100.00
70930;BME280;58588;48.102;19.682;2023-02-17T08:19:41;100247.69;;;4.07;100.00
70930;BME280;58588;48.102;19.682;2023-02-17T08:22:43;100247.28;;;4.22;100.00
70930;BME280;58588;48.102;19.682;2023-02-17T08:25:50;100246.31;;;4.23;100.00
70930;BME280;58588;48.102;19.682;2023-02-17T08:28:52;100239.78;;;4.16;100.00
70930;BME280;58588;48.102;19.682;2023-02-17T08:31:54;100248.84;;;4.25;100.00
70930;BME280;58588;48.102;19.682;2023-02-17T08:34:56;100240.94;;;4.35;100.00
70930;BME280;58588;48.102;19.682;2023-02-17T08:37:58;100235.22;;;4.39;100.00
70930;BME280;58588;48.102;19.682;2023-02-17T08:41:01;100232.41;;;4.41;100.00
70930;BME280;58588;48.102;19.682;2023-02-17T08:44:14;100230.41;;;4.54;100.00
70930;BME280;58588;48.102;19.682;2023-02-17T08:47:17;100234.72;;;4.66;100.00
70930;BME280;58588;48.102;19.682;2023-02-17T08:50:19;100238.47;;;4.84;100.00
70930;BME280;58588;48.102;19.682;2023-02-17T08:53:21;100268.94;;;4.93;100.00
70930;BME280;58588;48.102;19.682;2023-02-17T08:56:25;100255.56;;;4.72;100.00
70930;BME280;58588;48.102;19.682;2023-02-17T08:59:28;100254.13;;;4.89;100.00
70930;BME280;58588;48.102;19.682;2023-02-17T09:02:30;100252.09;;;5.02;100.00
70930;BME280;58588;48.102;19.682;2023-02-17T09:05:32;100241.19;;;5.15;100.00
70930;BME280;58588;48.102;19.682;2023-02-17T09:08:38;100239.84;;;5.61;100.00
70930;BME280;58588;48.102;19.682;2023-02-17T09:11:43;100242.38;;;5.62;100.00
70930;BME280;58588;48.102;19.682;2023-02-17T09:14:45;100230.28;;;5.58;100.00
70930;BME280;58588;48.102;19.682;2023-02-17T09:17:48;100220.34;;;5.80;100.00
70930;BME280;58588;48.102;19.682;2023-02-17T09:20:50;100218.91;;;5.66;100.00
70930;BME280;58588;48.102;19.682;2023-02-17T09:23:53;100216.53;;;5.73;100.00
70930;BME280;58588;48.102;19.682;2023-02-17T09:26:56;100217.75;;;5.59;100.00
70930;BME280;58588;48.102;19.682;2023-02-17T09:30:00;100226.81;;;5.37;100.00
70930;BME280;58588;48.102;19.682;2023-02-17T09:33:02;100200.91;;;5.28;100.00
70930;BME280;58588;48.102;19.682;2023-02-17T09:36:07;100187.00;;;5.44;100.00
70930;BME280;58588;48.102;19.682;2023-02-17T09:39:13;100209.47;;;5.72;100.00
70930;BME280;58588;48.102;19.682;2023-02-17T09:42:19;100209.66;;;5.89;100.00
70930;BME280;58588;48.102;19.682;2023-02-17T09:45:25;100217.59;;;6.01;100.00
70930;BME280;58588;48.102;19.682;2023-02-17T09:48:32;100223.13;;;6.19;100.00
70930;BME280;58588;48.102;19.682;2023-02-17T09:51:40;100217.91;;;6.27;99.60
70930;BME280;58588;48.102;19.682;2023-02-17T09:54:51;100220.56;;;6.27;100.00
70930;BME280;58588;48.102;19.682;2023-02-17T09:58:00;100219.47;;;6.49;100.00
70930;BME280;58588;48.102;19.682;2023-02-17T10:01:09;100201.00;;;6.36;98.54
70930;BME280;58588;48.102;19.682;2023-02-17T10:04:19;100200.25;;;6.73;93.33
70930;BME280;58588;48.102;19.682;2023-02-17T10:07:27;100190.28;;;6.55;94.13
70930;BME280;58588;48.102;19.682;2023-02-17T10:10:33;100182.75;;;6.78;92.66
70930;BME280;58588;48.102;19.682;2023-02-17T10:13:41;100186.84;;;7.19;90.73
70930;BME280;58588;48.102;19.682;2023-02-17T10:16:54;100177.72;;;7.40;88.02
70930;BME280;58588;48.102;19.682;2023-02-17T10:20:03;100187.19;;;7.44;86.42
70930;BME280;58588;48.102;19.682;2023-02-17T10:23:12;100191.06;;;8.04;87.39
70930;BME280;58588;48.102;19.682;2023-02-17T10:26:24;100186.94;;;7.83;81.34
70930;BME280;58588;48.102;19.682;2023-02-17T10:29:41;100181.66;;;7.91;80.96
70930;BME280;58588;48.102;19.682;2023-02-17T10:32:54;100175.91;;;8.03;83.14
70930;BME280;58588;48.102;19.682;2023-02-17T10:36:10;100175.16;;;8.11;79.67
70930;BME280;58588;48.102;19.682;2023-02-17T10:39:25;100179.81;;;8.27;81.69
70930;BME280;58588;48.102;19.682;2023-02-17T10:42:33;100187.38;;;8.59;80.08
70930;BME280;58588;48.102;19.682;2023-02-17T10:45:41;100177.06;;;8.72;76.96
70930;BME280;58588;48.102;19.682;2023-02-17T10:48:46;100169.56;;;8.84;76.70
70930;BME280;58588;48.102;19.682;2023-02-17T10:51:50;100156.84;;;8.68;74.55
70930;BME280;58588;48.102;19.682;2023-02-17T10:54:55;100153.34;;;8.94;75.88
70930;BME280;58588;48.102;19.682;2023-02-17T10:58:04;100149.91;;;8.83;74.13
70930;BME280;58588;48.102;19.682;2023-02-17T11:01:09;100144.56;;;8.92;75.94
70930;BME280;58588;48.102;19.682;2023-02-17T11:04:11;100142.91;;;8.91;75.28
70930;BME280;58588;48.102;19.682;2023-02-17T11:07:32;100134.66;;;9.26;74.30
70930;BME280;58588;48.102;19.682;2023-02-17T11:10:39;100129.56;;;9.49;73.78
70930;BME280;58588;48.102;19.682;2023-02-17T11:13:43;100122.72;;;9.79;73.79
70930;BME280;58588;48.102;19.682;2023-02-17T11:16:52;100122.91;;;9.94;72.82
70930;BME280;58588;48.102;19.682;2023-02-17T11:19:57;100106.56;;;9.79;71.95
70930;BME280;58588;48.102;19.682;2023-02-17T11:23:03;100109.22;;;9.71;70.41
70930;BME280;58588;48.102;19.682;2023-02-17T11:26:09;100098.00;;;10.00;69.98
70930;BME280;58588;48.102;19.682;2023-02-17T11:29:15;100096.31;;;9.99;70.43
70930;BME280;58588;48.102;19.682;2023-02-17T11:32:29;100094.63;;;9.82;70.35
70930;BME280;58588;48.102;19.682;2023-02-17T11:35:50;100085.72;;;10.06;71.08
70930;BME280;58588;48.102;19.682;2023-02-17T11:38:54;100080.84;;;10.17;68.50
70930;BME280;58588;48.102;19.682;2023-02-17T11:41:56;100080.69;;;10.35;69.13
70930;BME280;58588;48.102;19.682;2023-02-17T11:45:16;100077.00;;;10.28;68.56
70930;BME280;58588;48.102;19.682;2023-02-17T11:48:35;100065.72;;;10.33;67.28
70930;BME280;58588;48.102;19.682;2023-02-17T11:51:47;100065.19;;;10.29;68.00
70930;BME280;58588;48.102;19.682;2023-02-17T11:55:04;100072.75;;;10.09;66.84
70930;BME280;58588;48.102;19.682;2023-02-17T11:58:20;100077.63;;;10.06;67.33
70930;BME280;58588;48.102;19.682;2023-02-17T12:01:40;100074.09;;;9.89;67.59
70930;BME280;58588;48.102;19.682;2023-02-17T12:05:05;100067.28;;;9.44;69.83
70930;BME280;58588;48.102;19.682;2023-02-17T12:08:20;100067.97;;;8.96;69.99
70930;BME280;58588;48.102;19.682;2023-02-17T12:11:30;100056.22;;;9.05;70.85
70930;BME280;58588;48.102;19.682;2023-02-17T12:15:00;100056.06;;;8.64;72.33
70930;BME280;58588;48.102;19.682;2023-02-17T12:18:17;100044.78;;;8.61;73.78
70930;BME280;58588;48.102;19.682;2023-02-17T12:21:37;100038.22;;;8.63;74.64
70930;BME280;58588;48.102;19.682;2023-02-17T12:25:05;100047.63;;;8.59;75.45
70930;BME280;58588;48.102;19.682;2023-02-17T12:32:26;100045.06;;;8.31;78.58
70930;BME280;58588;48.102;19.682;2023-02-17T12:35:41;100036.84;;;8.33;78.98
70930;BME280;58588;48.102;19.682;2023-02-17T12:38:47;100040.22;;;8.35;80.03
70930;BME280;58588;48.102;19.682;2023-02-17T12:41:53;100025.88;;;8.26;81.81
70930;BME280;58588;48.102;19.682;2023-02-17T12:45:01;100031.97;;;8.28;82.23
70930;BME280;58588;48.102;19.682;2023-02-17T12:48:08;100039.53;;;8.33;83.60
70930;BME280;58588;48.102;19.682;2023-02-17T12:51:18;100040.13;;;8.45;83.94
70930;BME280;58588;48.102;19.682;2023-02-17T12:54:25;100029.72;;;8.42;84.98
70930;BME280;58588;48.102;19.682;2023-02-17T12:57:39;100033.81;;;8.28;87.22
70930;BME280;58588;48.102;19.682;2023-02-17T13:00:45;100027.88;;;8.42;87.70
70930;BME280;58588;48.102;19.682;2023-02-17T13:03:47;100024.16;;;8.17;89.09
70930;BME280;58588;48.102;19.682;2023-02-17T13:06:54;100023.56;;;8.31;89.67
70930;BME280;58588;48.102;19.682;2023-02-17T13:10:00;100024.78;;;8.11;90.05
70930;BME280;58588;48.102;19.682;2023-02-17T13:13:05;100039.72;;;7.88;92.55
70930;BME280;58588;48.102;19.682;2023-02-17T13:16:09;100028.00;;;7.71;97.01
70930;BME280;58588;48.102;19.682;2023-02-17T13:19:13;100026.16;;;7.54;100.00
70930;BME280;58588;48.102;19.682;2023-02-17T13:22:21;100019.75;;;7.19;100.00
70930;BME280;58588;48.102;19.682;2023-02-17T13:25:30;100031.28;;;7.02;100.00
70930;BME280;58588;48.102;19.682;2023-02-17T13:28:35;100027.69;;;6.93;100.00
70930;BME280;58588;48.102;19.682;2023-02-17T13:31:47;100028.13;;;6.61;100.00
70930;BME280;58588;48.102;19.682;2023-02-17T13:34:58;100017.19;;;6.44;100.00
70930;BME280;58588;48.102;19.682;2023-02-17T13:38:03;100035.78;;;6.46;100.00
70930;BME280;58588;48.102;19.682;2023-02-17T13:41:11;100026.94;;;6.36;100.00
70930;BME280;58588;48.102;19.682;2023-02-17T13:44:29;100038.03;;;6.51;100.00
70930;BME280;58588;48.102;19.682;2023-02-17T13:47:34;100026.66;;;6.29;100.00
70930;BME280;58588;48.102;19.682;2023-02-17T13:50:41;100027.06;;;6.34;100.00
70930;BME280;58588;48.102;19.682;2023-02-17T13:53:53;100027.81;;;6.27;100.00
70930;BME280;58588;48.102;19.682;2023-02-17T13:56:56;100032.31;;;6.26;100.00
70930;BME280;58588;48.102;19.682;2023-02-17T14:00:26;100027.53;;;6.30;100.00
70930;BME280;58588;48.102;19.682;2023-02-17T14:03:33;100020.06;;;6.24;100.00
70930;BME280;58588;48.102;19.682;2023-02-17T14:06:38;100025.69;;;6.30;100.00
70930;BME280;58588;48.102;19.682;2023-02-17T14:09:40;100025.53;;;6.32;100.00
70930;BME280;58588;48.102;19.682;2023-02-17T14:12:44;100021.78;;;6.25;100.00
70930;BME280;58588;48.102;19.682;2023-02-17T14:15:50;100034.84;;;6.37;100.00
70930;BME280;58588;48.102;19.682;2023-02-17T14:19:00;100020.06;;;6.24;100.00
70930;BME280;58588;48.102;19.682;2023-02-17T14:22:04;100016.94;;;6.28;100.00
70930;BME280;58588;48.102;19.682;2023-02-17T14:25:12;100005.81;;;6.33;100.00
70930;BME280;58588;48.102;19.682;2023-02-17T14:28:21;99997.88;;;6.41;100.00
70930;BME280;58588;48.102;19.682;2023-02-17T14:31:26;99997.78;;;6.33;100.00
70930;BME280;58588;48.102;19.682;2023-02-17T14:34:31;100003.38;;;6.39;100.00
70930;BME280;58588;48.102;19.682;2023-02-17T14:37:33;99996.50;;;6.37;100.00
70930;BME280;58588;48.102;19.682;2023-02-17T14:40:43;99985.22;;;6.33;100.00
70930;BME280;58588;48.102;19.682;2023-02-17T14:43:47;99980.19;;;6.30;100.00
70930;BME280;58588;48.102;19.682;2023-02-17T14:46:49;99980.84;;;6.42;100.00
70930;BME280;58588;48.102;19.682;2023-02-17T14:57:41;99960.63;;;6.48;100.00
70930;BME280;58588;48.102;19.682;2023-02-17T15:00:46;99962.78;;;6.44;100.00
70930;BME280;58588;48.102;19.682;2023-02-17T15:03:48;99962.03;;;6.52;100.00
70930;BME280;58588;48.102;19.682;2023-02-17T15:06:51;99962.28;;;6.58;100.00
70930;BME280;58588;48.102;19.682;2023-02-17T15:09:54;99956.09;;;6.58;100.00
70930;BME280;58588;48.102;19.682;2023-02-17T15:12:56;99956.25;;;6.56;100.00
70930;BME280;58588;48.102;19.682;2023-02-17T15:15:59;99945.09;;;6.61;100.00
70930;BME280;58588;48.102;19.682;2023-02-17T15:19:01;99943.34;;;6.69;100.00
70930;BME280;58588;48.102;19.682;2023-02-17T15:22:04;99938.13;;;6.68;100.00
70930;BME280;58588;48.102;19.682;2023-02-17T15:25:11;99939.00;;;6.59;100.00
70930;BME280;58588;48.102;19.682;2023-02-17T15:28:15;99933.81;;;6.57;100.00
70930;BME280;58588;48.102;19.682;2023-02-17T15:31:20;99943.00;;;6.55;100.00
70930;BME280;58588;48.102;19.682;2023-02-17T15:34:32;99924.09;;;6.56;100.00
70930;BME280;58588;48.102;19.682;2023-02-17T15:37:35;99925.88;;;6.65;100.00
70930;BME280;58588;48.102;19.682;2023-02-17T15:40:38;99920.59;;;6.56;100.00
70930;BME280;58588;48.102;19.682;2023-02-17T15:43:43;99925.47;;;6.33;100.00
70930;BME280;58588;48.102;19.682;2023-02-17T15:46:49;99912.78;;;6.35;100.00
70930;BME280;58588;48.102;19.682;2023-02-17T15:49:51;99919.97;;;6.34;100.00
70930;BME280;58588;48.102;19.682;2023-02-17T15:52:57;99910.41;;;6.32;100.00
70930;BME280;58588;48.102;19.682;2023-02-17T15:56:01;99912.69;;;6.27;100.00
70930;BME280;58588;48.102;19.682;2023-02-17T15:59:08;99901.97;;;6.27;100.00
70930;BME280;58588;48.102;19.682;2023-02-17T16:02:17;99903.97;;;6.25;100.00
70930;BME280;58588;48.102;19.682;2023-02-17T16:05:23;99903.25;;;6.23;100.00
70930;BME280;58588;48.102;19.682;2023-02-17T16:08:25;99900.50;;;6.14;100.00